createdAt,value
2022-08-28T00:01:24.061Z,57.81
2022-08-28T00:03:27.518Z,57.37
2022-08-28T00:05:36.173Z,57.19
2022-08-28T00:07:42.342Z,57.43
2022-08-28T00:09:49.075Z,57.24
2022-08-28T00:11:52.497Z,57.12
2022-08-28T00:13:56.813Z,57.01
2022-08-28T00:16:02.235Z,57.57
2022-08-28T00:18:07.413Z,56.93
2022-08-28T00:20:13.706Z,57.81
2022-08-28T00:22:18.643Z,57.68
2022-08-28T00:24:22.266Z,56.92
2022-08-28T00:26:43.362Z,57.21
2022-08-28T00:28:46.778Z,56.97
2022-08-28T00:30:52.145Z,56.93
2022-08-28T00:32:58.310Z,57.07
2022-08-28T00:35:01.862Z,56.70
2022-08-28T00:37:05.324Z,56.57
2022-08-28T00:39:10.650Z,57.39
2022-08-28T00:41:15.119Z,57.72
2022-08-28T00:43:27.642Z,57.14
2022-08-28T00:45:35.969Z,56.73
2022-08-28T00:47:42.685Z,56.10
2022-08-28T00:49:50.480Z,56.94
2022-08-28T00:52:11.327Z,56.60
2022-08-28T00:54:19.126Z,57.48
2022-08-28T00:56:23.058Z,56.34
2022-08-28T00:58:26.491Z,56.17
2022-08-28T01:00:36.090Z,56.08
2022-08-28T01:02:39.765Z,55.90
2022-08-28T01:04:43.839Z,56.54
2022-08-28T01:06:51.310Z,56.20
2022-08-28T01:08:55.297Z,56.61
2022-08-28T01:11:05.567Z,56.46
2022-08-28T01:13:09.044Z,56.42
2022-08-28T01:15:17.480Z,57.50
2022-08-28T01:17:24.327Z,56.27
2022-08-28T01:19:32.570Z,57.33
2022-08-28T01:21:43.916Z,57.08
2022-08-28T01:23:54.857Z,56.61
2022-08-28T01:26:00.206Z,56.81
2022-08-28T01:28:08.547Z,56.91
2022-08-28T01:30:15.424Z,57.65
2022-08-28T01:32:32.171Z,57.15
2022-08-28T01:34:36.787Z,57.45
2022-08-28T01:36:41.510Z,57.61
2022-08-28T01:38:49.251Z,57.83
2022-08-28T01:40:57.206Z,57.61
2022-08-28T01:43:10.054Z,57.72
2022-08-28T01:45:17.991Z,58.10
2022-08-28T01:47:22.620Z,58.07
2022-08-28T01:49:29.264Z,58.34
2022-08-28T01:51:33.022Z,58.44
2022-08-28T01:53:40.119Z,58.50
2022-08-28T01:55:44.447Z,58.66
2022-08-28T01:57:52.951Z,58.57
2022-08-28T01:59:56.432Z,58.59
2022-08-28T02:02:00.161Z,58.58
2022-08-28T02:04:04.955Z,58.83
2022-08-28T02:06:08.566Z,58.73
2022-08-28T02:08:12.218Z,58.86
2022-08-28T02:10:16.970Z,58.99
2022-08-28T02:12:20.648Z,58.96
2022-08-28T02:14:28.016Z,59.04
2022-08-28T02:16:31.609Z,59.22
2022-08-28T02:18:35.309Z,59.21
2022-08-28T02:20:38.870Z,59.13
2022-08-28T02:22:42.496Z,59.10
2022-08-28T02:24:46.195Z,59.19
2022-08-28T02:26:49.637Z,59.39
2022-08-28T02:28:53.079Z,59.05
2022-08-28T02:30:57.958Z,59.15
2022-08-28T02:33:01.412Z,59.20
2022-08-28T02:35:05.469Z,59.62
2022-08-28T02:37:15.502Z,59.35
2022-08-28T02:39:18.894Z,59.23
2022-08-28T02:41:22.476Z,59.28
2022-08-28T02:43:26.604Z,59.30
2022-08-28T02:45:30.137Z,59.02
2022-08-28T02:47:35.860Z,59.27
2022-08-28T02:49:40.025Z,59.32
2022-08-28T02:51:44.097Z,59.29
2022-08-28T02:53:47.563Z,59.55
2022-08-28T02:55:51.568Z,59.35
2022-08-28T02:57:55.556Z,58.90
2022-08-28T02:59:59.977Z,59.03
2022-08-28T03:02:06.766Z,59.16
2022-08-28T03:04:11.875Z,58.94
2022-08-28T03:06:15.600Z,59.29
2022-08-28T03:08:19.029Z,58.85
2022-08-28T03:10:23.132Z,59.04
2022-08-28T03:12:26.732Z,59.14
2022-08-28T03:14:30.919Z,59.43
2022-08-28T03:16:35.481Z,59.54
2022-08-28T03:18:39.611Z,59.36
2022-08-28T03:20:44.898Z,59.87
2022-08-28T03:23:14.453Z,59.90
2022-08-28T03:25:18.201Z,60.06
2022-08-28T03:27:21.651Z,60.32
2022-08-28T03:29:25.139Z,60.36
2022-08-28T03:31:33.739Z,60.59
2022-08-28T03:33:37.867Z,60.37
2022-08-28T03:35:47.382Z,60.44
2022-08-28T03:37:50.802Z,60.60
2022-08-28T03:39:54.336Z,60.82
2022-08-28T03:41:57.887Z,60.71
2022-08-28T03:44:02.822Z,60.51
2022-08-28T03:46:07.693Z,60.53
2022-08-28T03:48:11.299Z,60.92
2022-08-28T03:50:15.080Z,61.00
2022-08-28T03:52:19.877Z,60.80
2022-08-28T03:54:23.443Z,61.22
2022-08-28T03:56:28.786Z,61.14
2022-08-28T03:58:32.426Z,61.31
2022-08-28T04:00:36.090Z,61.34
2022-08-28T04:02:39.571Z,61.35
2022-08-28T04:04:42.949Z,61.37
2022-08-28T04:06:46.498Z,61.49
2022-08-28T04:08:51.841Z,62.60
2022-08-28T04:10:55.514Z,61.68
2022-08-28T04:12:58.947Z,61.37
2022-08-28T04:15:02.566Z,61.40
2022-08-28T04:17:11.268Z,61.52
2022-08-28T04:19:17.590Z,61.75
2022-08-28T04:21:23.569Z,61.97
2022-08-28T04:23:27.278Z,63.38
2022-08-28T04:25:32.674Z,62.58
2022-08-28T04:27:36.377Z,63.49
2022-08-28T04:29:39.750Z,62.38
2022-08-28T04:31:43.247Z,62.02
2022-08-28T04:33:46.726Z,62.19
2022-08-28T04:35:52.176Z,61.68
2022-08-28T04:37:58.703Z,61.83
2022-08-28T04:40:02.776Z,62.11
2022-08-28T04:42:07.797Z,62.31
2022-08-28T04:44:11.518Z,62.83
2022-08-28T04:46:15.987Z,62.33
2022-08-28T04:48:19.867Z,62.23
2022-08-28T04:50:23.299Z,62.46
2022-08-28T04:52:27.479Z,62.89
2022-08-28T04:54:32.731Z,63.91
2022-08-28T04:56:36.060Z,63.25
2022-08-28T04:58:42.444Z,62.66
2022-08-28T05:00:48.605Z,63.61
2022-08-28T05:02:52.303Z,63.70
2022-08-28T05:04:55.960Z,63.23
2022-08-28T05:06:59.386Z,63.51
2022-08-28T05:09:05.368Z,62.29
2022-08-28T05:11:14.617Z,62.48
2022-08-28T05:13:36.969Z,62.07
2022-08-28T05:15:42.345Z,62.46
2022-08-28T05:17:47.682Z,62.53
2022-08-28T05:19:52.277Z,62.76
2022-08-28T05:21:56.176Z,63.58
2022-08-28T05:23:59.598Z,63.07
2022-08-28T05:26:03.079Z,63.78
2022-08-28T05:28:09.860Z,62.92
2022-08-28T05:30:15.821Z,63.24
2022-08-28T05:32:20.747Z,63.09
2022-08-28T05:34:24.377Z,63.57
2022-08-28T05:36:32.452Z,63.67
2022-08-28T05:38:37.365Z,63.67
2022-08-28T05:40:44.936Z,63.54
2022-08-28T05:42:48.629Z,63.28
2022-08-28T05:44:54.706Z,63.28
2022-08-28T05:46:58.445Z,63.34
2022-08-28T05:49:06.621Z,63.67
2022-08-28T05:51:14.843Z,63.67
2022-08-28T05:53:18.291Z,63.76
2022-08-28T05:55:21.811Z,63.84
2022-08-28T05:57:25.232Z,63.79
2022-08-28T05:59:28.630Z,63.71
2022-08-28T06:01:33.989Z,63.75
2022-08-28T06:03:38.452Z,63.60
2022-08-28T06:05:43.797Z,65.16
2022-08-28T06:07:47.247Z,63.22
2022-08-28T06:09:50.811Z,62.86
2022-08-28T06:11:54.829Z,62.82
2022-08-28T06:14:02.627Z,62.88
2022-08-28T06:16:06.590Z,63.33
2022-08-28T06:18:12.606Z,62.05
2022-08-28T06:20:16.198Z,62.27
2022-08-28T06:22:20.955Z,62.83
2022-08-28T06:24:24.472Z,62.13
2022-08-28T06:26:28.231Z,62.08
2022-08-28T06:28:31.669Z,62.38
2022-08-28T06:30:37.339Z,62.28
2022-08-28T06:32:43.547Z,62.54
2022-08-28T06:34:46.981Z,61.68
2022-08-28T06:36:53.800Z,62.05
2022-08-28T06:39:00.512Z,62.99
2022-08-28T06:41:10.023Z,61.26
2022-08-28T06:43:14.399Z,61.30
2022-08-28T06:45:17.944Z,61.52
2022-08-28T06:47:21.707Z,60.55
2022-08-28T06:49:25.218Z,60.72
2022-08-28T06:51:28.687Z,61.88
2022-08-28T06:53:32.110Z,61.18
2022-08-28T06:55:37.046Z,60.44
2022-08-28T06:57:40.800Z,61.54
2022-08-28T06:59:44.289Z,60.36
2022-08-28T07:01:47.881Z,60.48
2022-08-28T07:03:53.507Z,60.47
2022-08-28T07:05:57.841Z,60.29
2022-08-28T07:08:01.691Z,60.39
2022-08-28T07:10:05.880Z,60.50
2022-08-28T07:12:10.742Z,61.29
2022-08-28T07:14:14.239Z,59.97
2022-08-28T07:16:20.143Z,60.06
2022-08-28T07:18:23.598Z,59.31
2022-08-28T07:20:27.044Z,59.65
2022-08-28T07:22:31.011Z,59.47
2022-08-28T07:24:34.548Z,59.76
2022-08-28T07:26:40.791Z,60.37
2022-08-28T07:28:45.753Z,60.30
2022-08-28T07:30:58.111Z,61.26
2022-08-28T07:33:01.557Z,59.86
2022-08-28T07:35:05.623Z,59.70
2022-08-28T07:37:14.714Z,58.84
2022-08-28T07:39:19.429Z,60.00
2022-08-28T07:41:26.858Z,57.91
2022-08-28T07:43:47.783Z,58.39
2022-08-28T07:45:59.780Z,58.46
2022-08-28T07:48:09.495Z,59.03
2022-08-28T07:50:15.716Z,59.06
2022-08-28T07:52:19.268Z,59.00
2022-08-28T07:54:23.086Z,58.80
2022-08-28T07:56:28.701Z,58.37
2022-08-28T07:58:32.863Z,59.07
2022-08-28T08:00:36.354Z,58.89
2022-08-28T08:02:41.208Z,58.89
2022-08-28T08:04:44.714Z,59.17
2022-08-28T08:06:48.532Z,59.40
2022-08-28T08:08:51.998Z,57.13
2022-08-28T08:11:00.490Z,56.51
2022-08-28T08:13:05.111Z,56.99
2022-08-28T08:15:12.088Z,56.83
2022-08-28T08:17:15.505Z,57.87
2022-08-28T08:19:20.364Z,57.40
2022-08-28T08:21:27.165Z,56.12
2022-08-28T08:23:34.735Z,55.46
2022-08-28T08:25:38.192Z,55.55
2022-08-28T08:27:43.143Z,55.44
2022-08-28T08:29:46.692Z,57.39
2022-08-28T08:31:57.400Z,55.36
2022-08-28T08:34:03.671Z,55.80
2022-08-28T08:36:09.888Z,55.68
2022-08-28T08:38:13.362Z,55.58
2022-08-28T08:40:19.550Z,55.15
2022-08-28T08:42:26.679Z,54.21
2022-08-28T08:44:34.221Z,54.92
2022-08-28T08:46:44.936Z,54.21
2022-08-28T08:48:48.761Z,54.13
2022-08-28T08:50:52.496Z,54.30
2022-08-28T08:53:15.865Z,54.40
2022-08-28T08:55:28.161Z,54.16
2022-08-28T08:57:33.521Z,53.79
2022-08-28T08:59:38.947Z,53.90
2022-08-28T09:01:50.810Z,53.19
2022-08-28T09:04:01.099Z,52.71
2022-08-28T09:06:06.843Z,54.98
2022-08-28T09:08:24.055Z,53.54
2022-08-28T09:10:36.427Z,51.31
2022-08-28T09:12:51.228Z,50.82
2022-08-28T09:15:04.989Z,51.82
2022-08-28T09:17:11.331Z,51.45
2022-08-28T09:19:20.142Z,53.02
2022-08-28T09:21:29.519Z,52.47
2022-08-28T09:23:34.588Z,51.61
2022-08-28T09:25:50.996Z,49.99
2022-08-28T09:27:55.481Z,49.90
2022-08-28T09:30:07.669Z,51.34
2022-08-28T09:32:22.364Z,49.51
2022-08-28T09:34:31.310Z,48.60
2022-08-28T09:36:38.985Z,48.86
2022-08-28T09:38:43.811Z,49.04
2022-08-28T09:41:03.779Z,49.28
2022-08-28T09:43:27.807Z,50.39
2022-08-28T09:45:31.301Z,49.08
2022-08-28T09:47:46.181Z,48.57
2022-08-28T09:49:50.461Z,49.04
2022-08-28T09:51:53.952Z,48.78
2022-08-28T09:54:08.049Z,47.62
2022-08-28T09:56:17.756Z,47.66
2022-08-28T09:58:22.195Z,47.93
2022-08-28T10:00:25.790Z,48.04
2022-08-28T10:02:41.799Z,47.70
2022-08-28T10:04:55.593Z,47.21
2022-08-28T10:07:04.928Z,47.21
2022-08-28T10:09:22.962Z,46.56
2022-08-28T10:11:34.186Z,46.09
2022-08-28T10:13:50.950Z,45.23
2022-08-28T10:16:03.722Z,45.40
2022-08-28T10:18:19.583Z,44.52
2022-08-28T10:20:31.262Z,44.59
2022-08-28T10:22:42.701Z,44.13
2022-08-28T10:25:02.343Z,44.08
2022-08-28T10:27:14.632Z,43.78
2022-08-28T10:29:34.348Z,43.10
2022-08-28T10:31:47.291Z,42.83
2022-08-28T10:34:04.765Z,42.27
2022-08-28T10:36:32.100Z,40.92
2022-08-28T10:38:42.875Z,41.52
2022-08-28T10:40:56.479Z,41.00
2022-08-28T10:43:04.698Z,41.14
2022-08-28T10:45:15.119Z,40.67
2022-08-28T10:47:23.084Z,40.86
2022-08-28T10:49:38.202Z,40.61
2022-08-28T10:51:47.510Z,40.55
2022-08-28T10:53:55.852Z,40.38
2022-08-28T10:56:04.428Z,40.60
2022-08-28T10:58:24.944Z,39.95
2022-08-28T11:00:29.199Z,39.74
2022-08-28T11:02:33.375Z,39.80
2022-08-28T11:04:37.485Z,39.88
2022-08-28T11:06:47.770Z,40.25
2022-08-28T11:08:54.371Z,40.09
2022-08-28T11:11:01.962Z,39.29
2022-08-28T11:13:07.435Z,39.36
2022-08-28T11:15:43.757Z,39.20
2022-08-28T11:17:48.438Z,38.93
2022-08-28T11:20:10.662Z,38.78
2022-08-28T11:22:18.829Z,39.55
2022-08-28T11:24:43.829Z,39.58
2022-08-28T11:27:00.030Z,39.34
2022-08-28T11:29:04.130Z,39.76
2022-08-28T11:31:31.401Z,39.40
2022-08-28T11:33:39.738Z,39.15
2022-08-28T11:35:52.166Z,38.93
2022-08-28T11:37:56.968Z,38.04
2022-08-28T11:40:15.313Z,37.39
2022-08-28T11:42:38.357Z,38.25
2022-08-28T11:44:44.801Z,38.51
2022-08-28T11:46:49.612Z,37.66
2022-08-28T11:48:54.432Z,37.75
2022-08-28T11:51:02.270Z,36.84
2022-08-28T11:53:29.468Z,36.27
2022-08-28T11:55:51.554Z,35.44
2022-08-28T12:00:21.102Z,35.63
2022-08-28T12:02:49.159Z,35.70
2022-08-28T12:04:52.741Z,35.14
2022-08-28T12:07:23.551Z,34.61
2022-08-28T12:09:44.553Z,35.06
2022-08-28T12:12:06.944Z,35.26
2022-08-28T12:14:11.814Z,35.30
2022-08-28T12:16:15.754Z,36.53
2022-08-28T12:18:49.137Z,37.08
2022-08-28T12:21:04.082Z,36.72
2022-08-28T12:23:45.928Z,36.49
2022-08-28T12:25:51.770Z,36.49
2022-08-28T12:27:56.149Z,36.94
2022-08-28T12:30:01.301Z,35.33
2022-08-28T12:32:27.135Z,34.65
2022-08-28T12:34:43.593Z,34.19
2022-08-28T12:36:52.028Z,34.91
2022-08-28T12:38:58.034Z,34.86
2022-08-28T12:41:03.501Z,33.93
2022-08-28T12:43:10.012Z,34.50
2022-08-28T12:45:20.268Z,33.64
2022-08-28T12:47:25.548Z,33.96
2022-08-28T12:49:32.904Z,32.61
2022-08-28T12:51:38.914Z,32.50
2022-08-28T12:53:45.894Z,32.86
2022-08-28T12:55:49.526Z,31.50
2022-08-28T12:57:54.817Z,31.67
2022-08-28T13:00:11.058Z,31.08
2022-08-28T13:02:26.519Z,31.70
2022-08-28T13:04:34.489Z,32.07
2022-08-28T13:06:39.877Z,31.97
2022-08-28T13:08:43.340Z,32.21
2022-08-28T13:10:51.204Z,31.68
2022-08-28T13:13:03.230Z,32.75
2022-08-28T13:15:10.421Z,33.33
2022-08-28T13:17:17.440Z,32.22
2022-08-28T13:19:27.890Z,32.38
2022-08-28T13:21:37.189Z,31.68
2022-08-28T13:23:41.400Z,32.04
2022-08-28T13:25:44.880Z,31.80
2022-08-28T13:27:59.151Z,31.64
2022-08-28T13:30:08.531Z,32.25
2022-08-28T13:32:19.023Z,30.89
2022-08-28T13:34:25.875Z,30.52
2022-08-28T13:36:29.860Z,30.99
2022-08-28T13:38:35.382Z,31.25
2022-08-28T13:40:58.525Z,30.82
2022-08-28T13:43:07.410Z,31.03
2022-08-28T13:45:15.082Z,30.24
2022-08-28T13:47:19.967Z,30.83
2022-08-28T13:49:23.753Z,30.65
2022-08-28T13:51:27.526Z,30.62
2022-08-28T13:53:30.996Z,30.94
2022-08-28T13:55:36.087Z,30.40
2022-08-28T13:57:39.660Z,30.83
2022-08-28T13:59:44.549Z,30.96
2022-08-28T14:02:05.956Z,31.31
2022-08-28T14:04:09.810Z,30.13
2022-08-28T14:06:16.794Z,29.43
2022-08-28T14:08:20.260Z,29.34
2022-08-28T14:10:24.087Z,28.79
2022-08-28T14:12:31.419Z,28.70
2022-08-28T14:14:37.259Z,28.79
2022-08-28T14:16:42.490Z,28.10
2022-08-28T14:18:45.966Z,28.19
2022-08-28T14:20:49.476Z,28.45
2022-08-28T14:22:52.968Z,28.60
2022-08-28T14:24:56.476Z,29.06
2022-08-28T14:27:00.261Z,28.86
2022-08-28T14:29:06.370Z,28.18
2022-08-28T14:31:14.210Z,28.85
2022-08-28T14:33:20.520Z,29.53
2022-08-28T14:35:24.422Z,28.68
2022-08-28T14:37:28.461Z,29.45
2022-08-28T14:39:32.112Z,28.87
2022-08-28T14:41:36.052Z,28.22
2022-08-28T14:43:39.640Z,28.29
2022-08-28T14:45:44.002Z,28.69
2022-08-28T14:47:47.471Z,28.47
2022-08-28T14:49:52.714Z,28.55
2022-08-28T14:51:57.062Z,28.01
2022-08-28T14:54:01.923Z,27.69
2022-08-28T14:56:07.572Z,27.73
2022-08-28T14:58:11.559Z,27.90
2022-08-28T15:00:16.475Z,28.02
2022-08-28T15:02:19.921Z,28.95
2022-08-28T15:04:26.058Z,27.53
2022-08-28T15:06:31.332Z,27.88
2022-08-28T15:08:35.393Z,27.84
2022-08-28T15:10:39.741Z,27.60
2022-08-28T15:12:43.182Z,28.30
2022-08-28T15:14:54.563Z,28.52
2022-08-28T15:16:58.769Z,27.71
2022-08-28T15:19:02.661Z,28.05
2022-08-28T15:21:07.608Z,27.48
2022-08-28T15:23:13.837Z,28.27
2022-08-28T15:25:17.669Z,28.37
2022-08-28T15:27:21.613Z,27.79
2022-08-28T15:29:25.315Z,28.30
2022-08-28T15:31:29.516Z,28.17
2022-08-28T15:33:33.061Z,28.01
2022-08-28T15:35:37.192Z,27.68
2022-08-28T15:37:40.580Z,28.05
2022-08-28T15:40:02.979Z,27.66
2022-08-28T15:42:08.450Z,28.06
2022-08-28T15:44:15.042Z,28.51
2022-08-28T15:46:18.615Z,27.53
2022-08-28T15:48:22.117Z,27.37
2022-08-28T15:50:25.576Z,27.50
2022-08-28T15:52:29.203Z,27.78
2022-08-28T15:54:32.889Z,27.81
2022-08-28T15:56:37.705Z,27.33
2022-08-28T15:58:41.297Z,27.14
2022-08-28T16:00:44.752Z,28.63
2022-08-28T16:02:48.216Z,27.69
2022-08-28T16:04:52.708Z,27.73
2022-08-28T16:07:00.443Z,27.43
2022-08-28T16:09:05.319Z,27.26
2022-08-28T16:11:09.029Z,26.89
2022-08-28T16:13:16.171Z,27.30
2022-08-28T16:15:21.436Z,27.92
2022-08-28T16:17:24.992Z,27.42
2022-08-28T16:19:29.338Z,27.38
2022-08-28T16:21:33.587Z,27.53
2022-08-28T16:23:37.386Z,27.37
2022-08-28T16:25:41.917Z,27.26
2022-08-28T16:27:45.530Z,27.53
2022-08-28T16:29:52.971Z,27.40
2022-08-28T16:31:56.810Z,27.42
2022-08-28T16:34:00.427Z,28.53
2022-08-28T16:36:08.311Z,28.08
2022-08-28T16:38:11.914Z,28.01
2022-08-28T16:40:15.660Z,28.31
2022-08-28T16:42:19.131Z,28.69
2022-08-28T16:44:24.464Z,28.75
2022-08-28T16:46:29.328Z,29.19
2022-08-28T16:48:33.131Z,28.83
2022-08-28T16:50:36.622Z,29.25
2022-08-28T16:52:40.483Z,29.25
2022-08-28T16:54:48.653Z,28.94
2022-08-28T16:56:52.731Z,29.59
2022-08-28T16:58:57.025Z,29.65
2022-08-28T17:01:00.918Z,29.68
2022-08-28T17:03:05.798Z,29.90
2022-08-28T17:05:11.687Z,29.88
2022-08-28T17:07:15.143Z,29.69
2022-08-28T17:09:20.801Z,30.13
2022-08-28T17:11:25.243Z,30.02
2022-08-28T17:13:28.758Z,30.23
2022-08-28T17:15:32.362Z,30.54
2022-08-28T17:17:36.341Z,30.99
2022-08-28T17:19:41.194Z,31.11
2022-08-28T17:22:03.805Z,31.39
2022-08-28T17:24:08.222Z,31.50
2022-08-28T17:26:11.692Z,31.75
2022-08-28T17:28:15.571Z,32.71
2022-08-28T17:30:19.536Z,33.00
2022-08-28T17:32:22.938Z,33.26
2022-08-28T17:34:30.090Z,32.61
2022-08-28T17:36:37.057Z,32.96
2022-08-28T17:38:42.407Z,32.73
2022-08-28T17:40:45.837Z,33.24
2022-08-28T17:42:49.235Z,33.57
2022-08-28T17:44:52.604Z,33.33
2022-08-28T17:46:56.013Z,33.70
2022-08-28T17:48:59.933Z,34.28
2022-08-28T17:51:03.482Z,34.33
2022-08-28T17:53:08.833Z,34.28
2022-08-28T17:55:12.303Z,34.63
2022-08-28T17:57:16.631Z,34.24
2022-08-28T17:59:21.068Z,34.52
2022-08-28T18:01:27.218Z,34.65
2022-08-28T18:03:30.796Z,34.75
2022-08-28T18:05:42.138Z,34.44
2022-08-28T18:07:45.572Z,34.65
2022-08-28T18:09:50.531Z,34.53
2022-08-28T18:11:54.162Z,35.24
2022-08-28T18:13:57.644Z,34.98
2022-08-28T18:16:01.257Z,35.20
2022-08-28T18:18:05.219Z,35.37
2022-08-28T18:20:11.474Z,35.29
2022-08-28T18:22:15.129Z,35.16
2022-08-28T18:24:18.831Z,35.38
2022-08-28T18:26:23.715Z,35.64
2022-08-28T18:28:28.220Z,35.46
2022-08-28T18:30:31.690Z,36.04
2022-08-28T18:32:35.248Z,36.04
2022-08-28T18:34:38.675Z,36.93
2022-08-28T18:36:42.654Z,36.38
2022-08-28T18:38:47.112Z,36.32
2022-08-28T18:40:50.972Z,36.31
2022-08-28T18:42:55.750Z,37.11
2022-08-28T18:44:59.475Z,36.82
2022-08-28T18:47:02.981Z,36.98
2022-08-28T18:49:06.999Z,36.82
2022-08-28T18:51:12.324Z,36.79
2022-08-28T18:53:16.443Z,36.66
2022-08-28T18:55:20.635Z,36.72
2022-08-28T18:57:25.164Z,37.87
2022-08-28T18:59:31.807Z,37.19
2022-08-28T19:01:35.397Z,37.16
2022-08-28T19:03:39.021Z,37.30
2022-08-28T19:05:42.930Z,37.41
2022-08-28T19:07:46.412Z,37.96
2022-08-28T19:09:50.182Z,38.09
2022-08-28T19:11:53.724Z,38.82
2022-08-28T19:13:57.200Z,38.05
2022-08-28T19:16:02.107Z,38.84
2022-08-28T19:18:07.023Z,38.31
2022-08-28T19:20:14.796Z,38.15
2022-08-28T19:22:18.714Z,38.12
2022-08-28T19:24:22.503Z,38.03
2022-08-28T19:26:26.523Z,37.93
2022-08-28T19:28:30.111Z,39.68
2022-08-28T19:30:34.601Z,38.29
2022-08-28T19:32:39.406Z,38.34
2022-08-28T19:34:42.797Z,39.39
2022-08-28T19:36:46.548Z,38.17
2022-08-28T19:38:50.753Z,38.21
2022-08-28T19:40:54.809Z,38.32
2022-08-28T19:42:58.205Z,38.81
2022-08-28T19:45:04.422Z,39.53
2022-08-28T19:47:08.086Z,39.42
2022-08-28T19:49:12.984Z,39.22
2022-08-28T19:51:17.476Z,40.23
2022-08-28T19:53:26.446Z,39.25
2022-08-28T19:55:30.307Z,38.97
2022-08-28T19:57:34.271Z,38.58
2022-08-28T19:59:37.776Z,39.35
2022-08-28T20:01:44.841Z,40.08
2022-08-28T20:03:48.701Z,39.85
2022-08-28T20:05:53.577Z,38.61
2022-08-28T20:07:57.047Z,39.51
2022-08-28T20:10:03.188Z,39.41
2022-08-28T20:12:06.881Z,40.84
2022-08-28T20:14:10.277Z,40.92
2022-08-28T20:16:13.947Z,40.87
2022-08-28T20:18:17.949Z,40.60
2022-08-28T20:20:26.719Z,39.43
2022-08-28T20:22:34.351Z,39.25
2022-08-28T20:24:41.978Z,40.39
2022-08-28T20:26:45.642Z,40.19
2022-08-28T20:28:49.166Z,38.14
2022-08-28T20:30:52.875Z,39.66
2022-08-28T20:32:58.341Z,38.29
2022-08-28T20:35:01.852Z,39.13
2022-08-28T20:37:05.407Z,40.18
2022-08-28T20:39:11.443Z,40.03
2022-08-28T20:41:17.343Z,40.28
2022-08-28T20:43:20.895Z,38.90
2022-08-28T20:45:24.462Z,39.14
2022-08-28T20:47:29.194Z,39.52
2022-08-28T20:49:32.763Z,39.53
2022-08-28T20:51:54.474Z,39.47
2022-08-28T20:53:57.909Z,39.54
2022-08-28T20:56:05.170Z,38.19
2022-08-28T20:58:08.598Z,39.32
2022-08-28T21:00:13.893Z,38.28
2022-08-28T21:02:19.691Z,39.57
2022-08-28T21:04:23.305Z,40.00
2022-08-28T21:06:26.755Z,40.00
2022-08-28T21:08:30.161Z,39.85
2022-08-28T21:10:33.634Z,39.98
2022-08-28T21:12:39.973Z,39.21
2022-08-28T21:14:43.854Z,40.33
2022-08-28T21:16:55.061Z,39.43
2022-08-28T21:19:15.091Z,40.16
2022-08-28T21:21:19.668Z,40.34
2022-08-28T21:23:25.182Z,41.01
2022-08-28T21:25:28.667Z,39.61
2022-08-28T21:27:32.096Z,40.51
2022-08-28T21:29:37.006Z,41.09
2022-08-28T21:31:41.848Z,40.43
2022-08-28T21:33:45.246Z,41.01
2022-08-28T21:35:48.877Z,39.82
2022-08-28T21:37:52.484Z,41.16
2022-08-28T21:39:56.335Z,41.06
2022-08-28T21:42:00.482Z,40.19
2022-08-28T21:44:05.420Z,40.44
2022-08-28T21:46:11.684Z,41.14
2022-08-28T21:48:15.305Z,41.30
2022-08-28T21:50:19.005Z,41.65
2022-08-28T21:52:25.703Z,42.01
2022-08-28T21:54:29.451Z,42.23
2022-08-28T21:56:32.920Z,43.08
2022-08-28T21:58:38.101Z,43.33
2022-08-28T22:00:41.525Z,43.30
2022-08-28T22:02:46.894Z,44.03
2022-08-28T22:04:50.457Z,43.85
2022-08-28T22:06:53.898Z,44.50
2022-08-28T22:08:58.076Z,44.59
2022-08-28T22:11:01.624Z,45.15
2022-08-28T22:13:05.137Z,45.59
2022-08-28T22:15:09.087Z,45.39
2022-08-28T22:17:15.018Z,45.47
2022-08-28T22:19:20.169Z,46.36
2022-08-28T22:21:43.222Z,45.64
2022-08-28T22:23:48.003Z,46.32
2022-08-28T22:25:51.467Z,46.14
2022-08-28T22:27:54.909Z,45.92
2022-08-28T22:29:58.612Z,45.61
2022-08-28T22:32:02.041Z,45.65
2022-08-28T22:34:06.095Z,45.77
2022-08-28T22:36:11.275Z,46.03
2022-08-28T22:38:15.504Z,46.03
2022-08-28T22:40:20.148Z,46.60
2022-08-28T22:42:23.616Z,45.96
2022-08-28T22:44:27.197Z,46.30
2022-08-28T22:46:31.245Z,46.08
2022-08-28T22:48:36.998Z,45.89
2022-08-28T22:50:40.421Z,46.01
2022-08-28T22:52:47.405Z,45.53
2022-08-28T22:54:53.043Z,46.66
2022-08-28T22:56:56.717Z,47.49
2022-08-28T22:59:00.245Z,47.05
2022-08-28T23:01:08.139Z,46.27
2022-08-28T23:03:11.894Z,46.69
2022-08-28T23:05:15.578Z,47.30
2022-08-28T23:07:19.130Z,46.89
2022-08-28T23:09:24.025Z,46.78
2022-08-28T23:11:27.610Z,47.08
2022-08-28T23:13:32.765Z,47.34
2022-08-28T23:15:36.259Z,47.52
2022-08-28T23:17:40.996Z,47.00
2022-08-28T23:19:44.595Z,47.21
2022-08-28T23:21:51.203Z,47.63
2022-08-28T23:23:55.496Z,47.37
2022-08-28T23:26:00.324Z,47.64
2022-08-28T23:28:06.582Z,47.56
2022-08-28T23:30:10.868Z,48.24
2022-08-28T23:32:15.033Z,48.02
2022-08-28T23:34:18.499Z,48.34
2022-08-28T23:36:22.413Z,48.22
2022-08-28T23:38:27.535Z,48.91
2022-08-28T23:40:33.039Z,48.38
2022-08-28T23:42:38.050Z,48.40
2022-08-28T23:44:41.755Z,48.90
2022-08-28T23:46:45.575Z,48.67
2022-08-28T23:48:49.951Z,48.89
2022-08-28T23:50:53.804Z,48.99
2022-08-28T23:52:58.441Z,49.18
2022-08-28T23:55:02.520Z,49.09
2022-08-28T23:57:06.974Z,49.50
2022-08-28T23:59:12.100Z,49.21
